Terminal Aerodrome Forecast
Issued by NWS Shreveport, LA

Home | Current Version | Previous Version | Text Only | Print | Product List | Glossary On
Versions: 1 2 3 4 5 6 7 8 9 10 11 12 13 14 15 16 17
008
FTUS44 KSHV 270007 AAA
TAFLFK
TAF AMD
KLFK 270007Z 2700/2724 32012KT P6SM SCT025
      TEMPO 2700/2702 32016G28KT
     FM270300 36005KT P6SM SKC
      TEMPO 2703/2705 34010KT
     FM271400 15008KT P6SM SKC
      TEMPO 2718/2722 17012G18KT=

USA.gov is the U.S. government's official web portal to all federal, state and local government web resources and services.